Time;durP1;ratioP1;P1;durP2;ratioP2;P2;SDS_P1;SDS_P2;PMS_P1;PMS_P2;Temp;Humidity;BMP_temperature;BMP_pressure;BME280_temperature;BME280_humidity;BME280_pressure;Samples;Min_cycle;Max_cycle;Signal;HPM_P1;HPM_P2
2022/11/05 00:10:59;;;;;;;5.72;1.92;;;7.50;99.90;;;;;;4973152;28;20516;-39
2022/11/05 00:19:05;;;;;;;5.63;1.60;;;7.40;99.90;;;;;;4969703;28;20133;-39
2022/11/05 00:27:06;;;;;;;6.93;1.90;;;7.30;99.90;;;;;;4964680;28;20047;-39
2022/11/05 00:29:32;;;;;;;6.90;1.60;;;7.20;99.90;;;;;;4970827;28;20046;-40
2022/11/05 00:31:57;;;;;;;8.27;1.83;;;7.20;99.90;;;;;;4970524;28;20046;-39
2022/11/05 00:34:23;;;;;;;5.05;1.58;;;7.20;99.90;;;;;;4974862;28;20047;-39
2022/11/05 00:36:48;;;;;;;3.75;1.80;;;7.10;99.90;;;;;;4964675;28;20043;-39
2022/11/05 00:39:14;;;;;;;4.55;2.10;;;7.10;99.90;;;;;;4968489;28;20047;-39
2022/11/05 00:41:40;;;;;;;9.98;2.20;;;7.10;99.90;;;;;;4971457;28;20401;-39
2022/11/05 00:49:28;;;;;;;3.78;1.70;;;7.10;99.90;;;;;;4965548;28;20519;-39
2022/11/05 00:49:35;;;;;;;5.28;2.05;;;7.10;99.90;;;;;;4949520;28;20578;-39
2022/11/05 00:54:45;;;;;;;6.65;2.28;;;7.00;99.90;;;;;;4968920;28;20082;-40
2022/11/05 00:57:10;;;;;;;5.57;1.88;;;7.00;99.90;;;;;;4969340;28;20149;-39
2022/11/05 00:59:36;;;;;;;4.00;1.90;;;7.00;99.90;;;;;;4968619;28;20053;-39
2022/11/05 01:02:02;;;;;;;5.90;1.90;;;6.90;99.90;;;;;;4969431;28;20045;-40
2022/11/05 01:04:27;;;;;;;5.93;2.50;;;6.90;99.90;;;;;;4968952;28;20051;-39
2022/11/05 01:06:54;;;;;;;5.72;2.60;;;6.80;99.90;;;;;;4972452;28;20385;-39
2022/11/05 01:09:19;;;;;;;6.90;2.67;;;6.80;99.90;;;;;;4971903;28;20043;-39
2022/11/05 01:11:45;;;;;;;6.55;2.13;;;6.80;99.90;;;;;;4974582;28;20039;-40
2022/11/05 01:14:14;;;;;;;7.13;1.98;;;6.70;99.90;;;;;;4969036;28;20049;-39
2022/11/05 01:16:41;;;;;;;4.15;1.83;;;6.70;99.90;;;;;;4969777;28;20047;-39
2022/11/05 01:19:09;;;;;;;5.38;2.22;;;6.60;99.90;;;;;;4973278;28;20051;-39
2022/11/05 01:21:35;;;;;;;6.03;1.90;;;6.60;99.90;;;;;;4969517;28;20574;-38
2022/11/05 01:24:01;;;;;;;5.32;1.67;;;6.60;99.90;;;;;;4970795;28;20051;-39
2022/11/05 01:26:27;;;;;;;6.22;1.80;;;6.50;99.90;;;;;;4967827;28;20122;-39
2022/11/05 01:28:54;;;;;;;4.97;2.05;;;6.50;99.90;;;;;;4970237;28;20047;-38
2022/11/05 01:31:21;;;;;;;4.63;1.50;;;6.50;99.90;;;;;;4969215;28;20073;-39
2022/11/05 01:33:47;;;;;;;5.47;1.80;;;6.50;99.90;;;;;;4949678;28;20617;-39
2022/11/05 01:36:13;;;;;;;5.13;1.58;;;6.40;99.90;;;;;;4950089;28;20054;-39
2022/11/05 01:38:39;;;;;;;7.13;1.55;;;6.50;99.90;;;;;;4945189;29;20098;-39
2022/11/05 01:41:05;;;;;;;4.70;1.83;;;6.40;99.90;;;;;;4948693;28;20031;-38
2022/11/05 01:43:55;;;;;;;4.43;1.40;;;6.40;99.90;;;;;;4946020;28;20561;-39
2022/11/05 01:46:26;;;;;;;5.18;2.30;;;6.40;99.90;;;;;;4928307;28;20039;-38
2022/11/05 01:48:54;;;;;;;6.03;1.92;;;6.30;99.90;;;;;;4944923;28;20055;-39
2022/11/05 01:51:24;;;;;;;3.92;1.30;;;6.30;99.90;;;;;;4950439;28;20118;-39
2022/11/05 01:53:53;;;;;;;4.13;1.77;;;6.30;99.90;;;;;;4949276;29;20050;-39
2022/11/05 01:56:48;;;;;;;6.60;1.80;;;6.30;99.90;;;;;;4948940;28;20043;-39
2022/11/05 01:59:28;;;;;;;8.88;2.15;;;6.20;99.90;;;;;;4941018;29;20051;-39
2022/11/05 02:01:54;;;;;;;5.78;1.85;;;6.10;99.90;;;;;;4949381;28;20118;-38
2022/11/05 02:04:31;;;;;;;5.82;1.92;;;6.20;99.90;;;;;;4951740;28;20082;-39
2022/11/05 02:06:58;;;;;;;5.68;2.00;;;6.10;99.90;;;;;;4945441;28;20174;-39
2022/11/05 02:09:29;;;;;;;3.85;1.60;;;6.10;99.90;;;;;;4951190;29;20051;-39
2022/11/05 02:11:56;;;;;;;4.45;2.00;;;6.00;99.90;;;;;;4953968;28;20178;-39
2022/11/05 02:14:22;;;;;;;4.40;1.60;;;6.10;99.90;;;;;;4949684;28;20047;-38
2022/11/05 02:17:19;;;;;;;7.18;2.00;;;6.00;99.90;;;;;;4932159;29;20404;-39
2022/11/05 02:20:08;;;;;;;6.75;2.33;;;6.00;99.90;;;;;;4941470;28;20046;-39
2022/11/05 02:23:18;;;;;;;4.93;2.42;;;6.00;99.90;;;;;;4950255;29;20047;-40
2022/11/05 02:25:59;;;;;;;5.45;2.28;;;6.00;99.90;;;;;;4944322;28;20069;-39
2022/11/05 02:29:02;;;;;;;8.85;2.75;;;6.00;99.90;;;;;;4949561;28;20131;-38
2022/11/05 02:31:34;;;;;;;;;;;5.90;99.90;;;;;;4944989;28;20047;-39
2022/11/05 02:34:15;;;;;;;7.60;3.00;;;6.00;99.90;;;;;;4984203;28;19926;-38
2022/11/05 02:36:43;;;;;;;6.68;2.50;;;6.00;99.90;;;;;;4989539;28;20047;-38
2022/11/05 02:39:28;;;;;;;8.25;2.70;;;5.90;99.90;;;;;;4990642;28;20096;-39
2022/11/05 02:42:16;;;;;;;5.95;3.10;;;6.00;99.90;;;;;;4985545;28;20039;-39
2022/11/05 02:44:54;;;;;;;7.90;3.00;;;6.00;99.90;;;;;;4990446;28;20042;-39
2022/11/05 02:47:34;;;;;;;5.32;2.45;;;6.00;99.90;;;;;;4991086;28;20407;-39
2022/11/05 02:50:19;;;;;;;6.43;3.08;;;5.90;99.90;;;;;;4985676;28;20053;-39
2022/11/05 02:53:08;;;;;;;7.60;3.20;;;5.90;99.90;;;;;;4992669;28;20092;-39
2022/11/05 02:55:45;;;;;;;9.77;3.30;;;5.80;99.90;;;;;;4983325;28;20061;-39
2022/11/05 02:58:12;;;;;;;4.47;2.30;;;5.80;99.90;;;;;;4987863;28;20121;-38
2022/11/05 03:00:51;;;;;;;7.95;3.30;;;5.80;99.90;;;;;;4990903;28;20415;-39
2022/11/05 03:03:33;;;;;;;6.68;2.70;;;5.70;99.90;;;;;;4992522;28;20078;-39
2022/11/05 03:05:58;;;;;;;4.87;2.60;;;5.70;99.90;;;;;;4992249;28;20082;-39
2022/11/05 03:08:33;;;;;;;6.00;2.88;;;5.70;99.90;;;;;;4984846;28;20132;-39
2022/11/05 03:11:20;;;;;;;4.88;1.80;;;5.70;99.90;;;;;;4991017;28;20042;-38
2022/11/05 03:14:17;;;;;;;5.47;2.70;;;5.70;99.90;;;;;;4991395;28;20030;-40
2022/11/05 03:17:05;;;;;;;11.05;3.22;;;5.60;99.90;;;;;;4987949;28;20042;-39
2022/11/05 03:20:04;;;;;;;9.60;2.50;;;5.60;99.90;;;;;;4988966;28;20046;-39
2022/11/05 03:22:36;;;;;;;5.18;1.95;;;5.60;99.90;;;;;;4984034;28;20058;-40
2022/11/05 03:25:09;;;;;;;5.13;2.53;;;5.60;99.90;;;;;;4972633;28;20046;-39
2022/11/05 03:27:40;;;;;;;6.68;2.10;;;5.50;99.90;;;;;;4973656;28;20054;-39
2022/11/05 03:30:10;;;;;;;5.43;2.10;;;5.50;99.90;;;;;;4990537;28;20129;-39
2022/11/05 03:32:40;;;;;;;5.32;2.15;;;5.50;99.90;;;;;;4992569;28;20094;-39
2022/11/05 03:35:21;;;;;;;4.28;1.92;;;5.50;99.90;;;;;;4991918;28;20049;-39
2022/11/05 03:37:50;;;;;;;4.85;1.92;;;5.50;99.90;;;;;;4977725;28;20042;-39
2022/11/05 03:40:17;;;;;;;5.22;1.83;;;5.50;99.90;;;;;;4989625;28;20035;-38
2022/11/05 03:42:48;;;;;;;7.60;2.08;;;5.50;99.90;;;;;;4991987;28;20670;-39
2022/11/05 03:45:32;;;;;;;8.10;2.55;;;5.50;99.90;;;;;;4989521;28;20042;-40
2022/11/05 03:48:00;;;;;;;8.40;2.15;;;5.50;99.90;;;;;;4970246;28;20120;-38
2022/11/05 03:50:36;;;;;;;4.18;1.77;;;5.50;99.90;;;;;;4990518;28;20101;-38
2022/11/05 03:53:34;;;;;;;3.65;1.70;;;5.60;99.90;;;;;;4968678;28;20488;-39
2022/11/05 03:56:08;;;;;;;5.00;1.77;;;5.50;99.90;;;;;;4974745;28;20050;-43
2022/11/05 03:58:35;;;;;;;4.40;2.58;;;5.50;99.90;;;;;;4985795;28;20555;-39
2022/11/05 04:01:01;;;;;;;4.40;2.13;;;5.50;99.90;;;;;;4987408;28;20038;-38
2022/11/05 04:03:34;;;;;;;9.23;2.72;;;5.60;99.90;;;;;;4982804;28;20080;-39
2022/11/05 04:14:14;;;;;;;7.15;2.60;;;5.60;99.90;;;;;;4987533;28;20519;-38
2022/11/05 04:24:53;;;;;;;10.95;2.60;;;5.50;99.90;;;;;;4987956;28;20056;-38
2022/11/05 04:27:19;;;;;;;9.95;2.53;;;5.50;99.90;;;;;;4986129;28;20038;-39
2022/11/05 04:33:00;;;;;;;10.82;2.45;;;5.40;99.90;;;;;;4913537;29;20055;-38
2022/11/05 04:35:28;;;;;;;8.38;2.58;;;5.40;99.90;;;;;;4908709;29;20095;-39
2022/11/05 04:37:54;;;;;;;7.25;2.45;;;5.40;99.90;;;;;;4945745;28;20066;-39
2022/11/05 04:40:19;;;;;;;7.13;3.13;;;5.40;99.90;;;;;;4984793;28;20411;-39
2022/11/05 04:42:45;;;;;;;6.07;2.40;;;5.50;99.90;;;;;;4990918;28;20073;-39
2022/11/05 04:45:11;;;;;;;7.53;2.75;;;5.40;99.90;;;;;;4983636;28;20070;-39
2022/11/05 04:47:36;;;;;;;6.80;2.78;;;5.50;99.90;;;;;;4983611;28;20086;-38
2022/11/05 04:50:02;;;;;;;5.72;3.05;;;5.40;99.90;;;;;;4980067;28;20035;-38
2022/11/05 04:52:28;;;;;;;6.65;2.72;;;5.40;99.90;;;;;;4983635;28;20046;-38
2022/11/05 04:54:53;;;;;;;5.40;2.72;;;5.40;99.90;;;;;;4977971;28;20041;-39
2022/11/05 04:57:19;;;;;;;4.47;2.60;;;5.40;99.90;;;;;;4964714;28;20098;-38
2022/11/05 04:59:48;;;;;;;6.65;3.05;;;5.40;99.90;;;;;;4969865;28;20062;-38
2022/11/05 05:02:13;;;;;;;4.75;2.47;;;5.30;99.90;;;;;;4985507;28;20060;-38
2022/11/05 05:04:39;;;;;;;5.97;3.22;;;5.40;99.90;;;;;;4988137;28;20117;-38
2022/11/05 05:07:05;;;;;;;6.03;2.45;;;5.30;99.90;;;;;;4984239;28;20038;-39
2022/11/05 05:09:30;;;;;;;11.15;2.97;;;5.30;99.90;;;;;;4988447;28;20508;-39
2022/11/05 05:11:56;;;;;;;6.28;3.25;;;5.30;99.90;;;;;;4985790;28;20495;-39
2022/11/05 05:14:21;;;;;;;7.75;2.85;;;5.30;99.90;;;;;;4986280;28;20125;-39
2022/11/05 05:16:47;;;;;;;7.28;2.97;;;5.40;99.90;;;;;;4983307;28;20039;-39
2022/11/05 05:19:13;;;;;;;6.80;2.85;;;5.40;99.90;;;;;;4987245;28;20038;-39
2022/11/05 05:21:39;;;;;;;8.15;3.92;;;5.50;99.90;;;;;;4989178;28;20050;-39
2022/11/05 05:24:13;;;;;;;7.45;3.50;;;5.50;99.90;;;;;;4985998;28;20046;-39
2022/11/05 05:26:42;;;;;;;5.50;2.85;;;5.60;99.90;;;;;;4981177;28;20097;-39
2022/11/05 05:29:08;;;;;;;6.32;3.03;;;5.70;99.90;;;;;;4989038;28;20121;-39
2022/11/05 05:31:34;;;;;;;4.78;3.00;;;5.80;99.90;;;;;;4988068;28;20050;-38
2022/11/05 05:34:01;;;;;;;7.75;3.33;;;5.80;99.90;;;;;;4982931;28;20057;-39
2022/11/05 05:36:27;;;;;;;7.72;3.67;;;5.90;99.90;;;;;;4988066;28;20399;-38
2022/11/05 05:38:52;;;;;;;7.18;3.10;;;5.90;99.90;;;;;;4989440;28;20555;-39
2022/11/05 05:41:18;;;;;;;5.28;2.83;;;6.00;99.90;;;;;;4984951;28;20129;-38
2022/11/05 05:43:44;;;;;;;5.20;3.20;;;6.00;99.90;;;;;;4987818;28;20046;-39
2022/11/05 05:46:12;;;;;;;7.93;2.90;;;6.00;99.90;;;;;;4985332;28;20045;-38
2022/11/05 05:48:38;;;;;;;7.30;3.55;;;6.10;99.90;;;;;;4985517;28;20554;-38
2022/11/05 05:51:09;;;;;;;7.47;2.92;;;6.10;99.90;;;;;;4988174;28;20038;-38
2022/11/05 05:53:35;;;;;;;6.60;2.75;;;6.10;99.90;;;;;;4989422;28;20047;-39
2022/11/05 05:56:02;;;;;;;6.55;3.35;;;6.00;99.90;;;;;;4987887;28;20439;-39
2022/11/05 05:58:35;;;;;;;29.52;3.55;;;6.00;99.90;;;;;;4986749;28;20035;-38
2022/11/05 06:01:03;;;;;;;9.23;3.25;;;6.00;99.90;;;;;;4986265;28;20034;-39
2022/11/05 06:03:29;;;;;;;9.30;2.92;;;5.90;99.90;;;;;;4987074;28;20567;-39
2022/11/05 06:05:59;;;;;;;9.50;2.92;;;5.90;99.90;;;;;;4989151;28;20117;-39
2022/11/05 06:08:25;;;;;;;4.97;2.80;;;5.90;99.90;;;;;;4987378;28;20086;-39
2022/11/05 06:10:51;;;;;;;5.55;2.85;;;5.80;99.90;;;;;;4983132;28;20146;-39
2022/11/05 06:13:17;;;;;;;8.40;3.53;;;5.80;99.90;;;;;;4988943;28;20117;-39
2022/11/05 06:15:43;;;;;;;5.47;2.80;;;5.80;99.90;;;;;;4986964;28;20603;-40
2022/11/05 06:18:08;;;;;;;9.05;3.17;;;5.80;99.90;;;;;;4983417;28;20132;-39
2022/11/05 06:20:34;;;;;;;6.60;2.92;;;5.80;99.90;;;;;;4987220;28;20125;-38
2022/11/05 06:22:59;;;;;;;9.25;3.58;;;5.70;99.90;;;;;;4969784;28;20069;-40
2022/11/05 06:25:25;;;;;;;6.10;2.80;;;5.70;99.90;;;;;;4985235;28;20668;-39
2022/11/05 06:27:52;;;;;;;6.20;2.80;;;5.70;99.90;;;;;;4984152;28;20042;-39
2022/11/05 06:30:18;;;;;;;7.00;2.70;;;5.70;99.90;;;;;;4987229;28;20101;-39
2022/11/05 06:32:43;;;;;;;7.28;2.85;;;5.60;99.90;;;;;;4988028;28;20086;-39
2022/11/05 06:35:09;;;;;;;5.57;2.70;;;5.60;99.90;;;;;;4989696;28;20046;-39
2022/11/05 06:37:35;;;;;;;5.63;2.53;;;5.50;99.90;;;;;;4986271;28;20042;-39
2022/11/05 06:40:01;;;;;;;4.85;2.80;;;5.50;99.90;;;;;;4988207;28;20037;-39
2022/11/05 06:42:26;;;;;;;8.80;2.88;;;5.50;99.90;;;;;;4989111;28;20121;-40
2022/11/05 06:44:52;;;;;;;6.20;2.53;;;5.50;99.90;;;;;;4968904;28;20049;-39
2022/11/05 06:47:18;;;;;;;6.13;2.58;;;5.50;99.90;;;;;;4982931;28;20109;-39
2022/11/05 06:49:45;;;;;;;5.07;2.53;;;5.40;99.90;;;;;;4983375;28;20045;-39
2022/11/05 06:52:12;;;;;;;6.03;2.20;;;5.40;99.90;;;;;;4986340;28;20045;-39
2022/11/05 06:54:38;;;;;;;6.57;2.88;;;5.40;99.90;;;;;;4988169;28;20038;-39
2022/11/05 06:57:05;;;;;;;5.40;2.78;;;5.40;99.90;;;;;;4982553;28;20038;-40
2022/11/05 06:59:31;;;;;;;4.60;2.55;;;5.40;99.90;;;;;;4986288;28;20074;-39
2022/11/05 07:01:56;;;;;;;10.02;2.70;;;5.40;99.90;;;;;;4980964;28;20066;-39
2022/11/05 07:04:22;;;;;;;5.00;3.20;;;5.40;99.90;;;;;;4985706;28;20045;-39
2022/11/05 07:06:47;;;;;;;6.95;3.08;;;5.40;99.90;;;;;;4987020;28;20045;-39
2022/11/05 07:09:13;;;;;;;5.57;2.78;;;5.40;99.90;;;;;;4988305;28;20049;-39
2022/11/05 07:11:39;;;;;;;7.40;3.22;;;5.30;99.90;;;;;;4988429;28;20038;-39
2022/11/05 07:14:04;;;;;;;5.68;2.88;;;5.40;99.90;;;;;;4990001;28;20038;-39
2022/11/05 07:16:30;;;;;;;6.70;2.97;;;5.40;99.90;;;;;;4985036;28;20415;-39
2022/11/05 07:18:56;;;;;;;6.40;3.03;;;5.40;99.90;;;;;;4984692;28;20038;-39
2022/11/05 07:21:21;;;;;;;5.40;2.85;;;5.40;99.90;;;;;;4982876;28;20049;-39
2022/11/05 07:23:47;;;;;;;6.53;3.65;;;5.40;99.90;;;;;;4983658;28;20038;-39
2022/11/05 07:26:13;;;;;;;10.85;3.95;;;5.40;99.90;;;;;;4967267;28;20060;-40
2022/11/05 07:28:39;;;;;;;5.25;2.63;;;5.40;99.90;;;;;;4989003;28;20046;-39
2022/11/05 07:31:04;;;;;;;6.88;3.15;;;5.40;99.90;;;;;;4988561;28;20251;-40
2022/11/05 07:33:30;;;;;;;4.80;2.92;;;5.40;99.90;;;;;;4972285;28;20050;-39
2022/11/05 07:35:56;;;;;;;5.65;3.15;;;5.40;99.90;;;;;;4991820;28;20041;-41
2022/11/05 07:38:22;;;;;;;10.55;3.00;;;5.50;99.90;;;;;;4969562;28;20124;-41
2022/11/05 07:40:48;;;;;;;8.75;3.40;;;5.50;99.90;;;;;;4990233;28;20065;-39
2022/11/05 07:43:13;;;;;;;9.55;3.08;;;5.60;99.90;;;;;;4989625;28;20068;-41
2022/11/05 07:45:39;;;;;;;7.35;3.38;;;5.60;99.90;;;;;;4986045;28;20046;-39
2022/11/05 07:48:05;;;;;;;7.35;3.60;;;5.60;99.90;;;;;;4986843;28;20042;-39
2022/11/05 07:50:33;;;;;;;5.15;2.65;;;5.70;99.90;;;;;;4988546;28;20049;-40
2022/11/05 07:53:08;;;;;;;8.13;3.83;;;5.80;99.90;;;;;;4969846;28;20492;-40
2022/11/05 07:55:34;;;;;;;6.45;3.53;;;5.90;99.90;;;;;;4989692;28;20050;-39
2022/11/05 07:58:00;;;;;;;5.95;3.70;;;6.00;99.90;;;;;;4984333;28;20046;-39
2022/11/05 08:00:27;;;;;;;12.85;4.72;;;6.00;99.90;;;;;;4986911;28;20514;-39
2022/11/05 08:03:09;;;;;;;6.00;3.28;;;6.10;99.90;;;;;;4988297;28;20039;-39
2022/11/05 08:05:36;;;;;;;10.20;3.85;;;6.20;99.90;;;;;;4991234;28;20058;-39
2022/11/05 08:08:03;;;;;;;8.32;4.30;;;6.20;99.90;;;;;;4986268;28;20081;-40
2022/11/05 08:10:29;;;;;;;4.40;2.75;;;6.30;99.90;;;;;;4988194;28;20577;-39
2022/11/05 08:12:55;;;;;;;7.10;3.63;;;6.40;99.90;;;;;;4966942;28;20042;-40
2022/11/05 08:15:22;;;;;;;6.40;3.60;;;6.50;99.90;;;;;;4989149;28;20046;-40
2022/11/05 08:17:49;;;;;;;7.95;3.38;;;6.60;99.90;;;;;;4989092;28;20050;-39
2022/11/05 08:20:15;;;;;;;7.15;3.50;;;6.70;99.90;;;;;;4988903;28;20042;-39
2022/11/05 08:22:44;;;;;;;7.22;3.22;;;6.80;99.90;;;;;;4986463;28;20046;-39
2022/11/05 08:25:11;;;;;;;4.43;2.65;;;6.90;99.90;;;;;;4989509;28;20364;-40
2022/11/05 08:27:38;;;;;;;5.28;3.08;;;7.00;99.90;;;;;;4990027;28;20042;-39
2022/11/05 08:30:08;;;;;;;7.75;3.53;;;7.10;99.90;;;;;;4990269;28;20047;-39
2022/11/05 08:32:34;;;;;;;6.25;2.78;;;7.20;99.90;;;;;;4985345;28;20073;-39
2022/11/05 08:35:00;;;;;;;5.38;2.60;;;7.30;99.90;;;;;;4989758;28;20528;-40
2022/11/05 08:37:26;;;;;;;5.75;2.78;;;7.40;99.90;;;;;;4987129;28;20042;-41
2022/11/05 08:39:51;;;;;;;5.70;2.50;;;7.40;99.90;;;;;;4980428;28;20095;-40
2022/11/05 08:42:17;;;;;;;5.47;2.42;;;7.50;99.90;;;;;;4989755;28;20148;-39
2022/11/05 08:44:43;;;;;;;5.13;2.33;;;7.50;99.90;;;;;;4972835;28;20141;-39
2022/11/05 08:47:08;;;;;;;4.63;2.45;;;7.60;99.90;;;;;;4983378;28;20033;-40
2022/11/05 08:49:34;;;;;;;4.43;2.65;;;7.70;99.90;;;;;;4987936;28;20050;-40
2022/11/05 08:52:00;;;;;;;4.05;2.35;;;7.80;99.90;;;;;;4972920;28;20126;-40
2022/11/05 08:54:25;;;;;;;10.60;2.22;;;7.90;99.90;;;;;;4985375;28;20073;-40
2022/11/05 08:56:51;;;;;;;5.38;2.53;;;8.00;99.90;;;;;;4989497;28;20045;-39
2022/11/05 08:59:17;;;;;;;8.02;2.30;;;8.10;99.90;;;;;;4985480;28;20045;-39
2022/11/05 09:01:42;;;;;;;5.43;2.08;;;8.20;99.90;;;;;;4988508;28;20404;-40
2022/11/05 09:04:08;;;;;;;6.93;2.28;;;8.20;99.90;;;;;;4989692;28;20126;-39
2022/11/05 09:06:34;;;;;;;3.95;1.77;;;8.30;99.90;;;;;;4985005;28;20061;-39
2022/11/05 09:08:59;;;;;;;4.63;2.35;;;8.40;99.90;;;;;;4983753;28;20038;-39
2022/11/05 09:11:25;;;;;;;4.50;2.20;;;8.40;99.90;;;;;;4990541;28;20073;-39
2022/11/05 09:13:51;;;;;;;5.20;2.28;;;8.50;99.90;;;;;;4987904;28;20479;-39
2022/11/05 09:16:22;;;;;;;5.88;2.25;;;8.60;99.90;;;;;;4991698;28;20088;-39
2022/11/05 09:18:49;;;;;;;4.45;2.17;;;8.60;99.90;;;;;;4984782;28;20054;-39
2022/11/05 09:21:16;;;;;;;6.45;2.40;;;8.80;99.90;;;;;;4960847;28;20057;-40
2022/11/05 09:23:43;;;;;;;4.65;2.08;;;8.80;99.90;;;;;;4970371;28;20125;-39
2022/11/05 09:26:09;;;;;;;5.68;2.42;;;8.90;99.90;;;;;;4985978;28;20088;-39
2022/11/05 09:28:35;;;;;;;5.72;2.20;;;9.00;99.90;;;;;;4984807;28;20100;-44
2022/11/05 09:31:07;;;;;;;3.95;2.20;;;9.10;99.90;;;;;;4987432;28;20046;-39
2022/11/05 09:33:35;;;;;;;4.25;2.10;;;9.10;99.90;;;;;;4983215;28;20042;-40
2022/11/05 09:36:00;;;;;;;5.70;2.30;;;9.10;99.90;;;;;;4988111;28;20038;-39
2022/11/05 09:38:26;;;;;;;5.18;2.97;;;9.10;99.90;;;;;;4987686;28;20048;-40
2022/11/05 09:40:55;;;;;;;7.95;2.50;;;9.20;99.90;;;;;;4990412;28;21991;-40
2022/11/05 09:43:24;;;;;;;4.70;2.33;;;9.30;99.90;;;;;;4987212;28;20117;-39
2022/11/05 09:45:55;;;;;;;7.10;2.58;;;9.50;99.90;;;;;;4971653;28;20250;-40
2022/11/05 09:48:26;;;;;;;7.45;3.00;;;9.60;99.90;;;;;;4987566;28;20412;-39
2022/11/05 09:50:53;;;;;;;8.80;3.67;;;9.70;99.90;;;;;;4988498;28;20041;-40
2022/11/05 09:53:21;;;;;;;4.80;2.30;;;9.80;99.90;;;;;;4985307;28;20039;-40
2022/11/05 09:55:59;;;;;;;4.88;2.65;;;9.90;99.90;;;;;;4982594;28;20046;-40
2022/11/05 09:58:39;;;;;;;6.40;2.30;;;10.00;99.90;;;;;;4982640;28;20046;-40
2022/11/05 10:01:10;;;;;;;5.95;2.42;;;10.10;99.90;;;;;;4982266;28;20050;-40
2022/11/05 10:03:43;;;;;;;5.03;2.20;;;10.20;99.90;;;;;;4986338;28;20057;-39
2022/11/05 10:06:16;;;;;;;4.65;2.25;;;10.30;99.90;;;;;;4989011;28;20050;-39
2022/11/05 10:08:46;;;;;;;5.53;1.80;;;10.50;99.90;;;;;;4993881;28;20038;-39
2022/11/05 10:11:34;;;;;;;4.68;1.80;;;10.60;99.90;;;;;;4992014;28;20512;-40
2022/11/05 10:14:12;;;;;;;3.95;1.65;;;10.70;99.90;;;;;;4969996;28;20062;-39
2022/11/05 10:16:45;;;;;;;3.78;1.60;;;10.80;99.90;;;;;;4972656;28;20050;-39
2022/11/05 10:19:23;;;;;;;4.60;1.60;;;10.90;99.90;;;;;;4988171;28;20050;-39
2022/11/05 10:22:01;;;;;;;4.70;2.03;;;10.90;99.90;;;;;;4973767;28;20037;-39
2022/11/05 10:24:27;;;;;;;3.38;1.40;;;10.90;99.90;;;;;;4980448;28;20419;-39
2022/11/05 10:26:53;;;;;;;5.35;1.67;;;10.90;99.90;;;;;;4978878;28;20633;-40
2022/11/05 10:29:32;;;;;;;4.28;1.40;;;10.90;99.90;;;;;;4982656;28;20105;-39
2022/11/05 10:32:00;;;;;;;5.43;1.80;;;11.00;99.90;;;;;;4984226;28;20045;-39
2022/11/05 10:34:30;;;;;;;6.50;1.20;;;11.00;99.90;;;;;;4988582;28;20043;-39
2022/11/05 10:36:56;;;;;;;3.78;1.25;;;11.10;99.90;;;;;;4986262;28;20586;-39
2022/11/05 10:39:23;;;;;;;2.75;1.00;;;11.20;99.90;;;;;;4988144;28;20096;-39
2022/11/05 10:42:01;;;;;;;3.03;1.38;;;11.30;99.90;;;;;;4971462;28;20121;-39
2022/11/05 10:44:33;;;;;;;6.35;1.75;;;11.40;99.90;;;;;;4966070;28;20113;-40
2022/11/05 10:47:27;;;;;;;6.82;1.83;;;11.60;99.90;;;;;;4987310;28;20054;-39
2022/11/05 10:49:57;;;;;;;3.08;1.38;;;11.70;99.90;;;;;;4987738;28;20492;-39
2022/11/05 10:52:32;;;;;;;3.63;1.20;;;11.70;99.90;;;;;;4983987;28;20054;-39
2022/11/05 10:55:03;;;;;;;6.15;1.30;;;11.70;99.90;;;;;;4993367;28;20057;-39
2022/11/05 10:57:34;;;;;;;2.15;1.08;;;11.60;99.90;;;;;;4985266;28;20034;-39
2022/11/05 11:00:15;;;;;;;6.35;1.30;;;11.60;99.90;;;;;;4990713;28;20564;-39
2022/11/05 11:02:53;;;;;;;6.60;1.60;;;11.60;99.90;;;;;;4989688;28;22199;-40
2022/11/05 11:05:37;;;;;;;3.83;1.50;;;11.60;99.90;;;;;;4987229;28;20125;-40
2022/11/05 11:08:05;;;;;;;4.80;1.20;;;11.50;99.90;;;;;;4991804;28;20508;-39
2022/11/05 11:10:39;;;;;;;4.65;1.77;;;11.40;99.90;;;;;;4971268;28;20045;-39
2022/11/05 11:13:16;;;;;;;3.83;1.50;;;11.40;99.90;;;;;;4987067;28;20499;-39
2022/11/05 11:15:42;;;;;;;4.18;1.60;;;11.30;99.90;;;;;;4990465;28;20537;-40
2022/11/05 11:18:24;;;;;;;4.15;1.70;;;11.30;99.90;;;;;;4990750;28;20038;-40
2022/11/05 11:20:50;;;;;;;4.43;1.88;;;11.20;99.90;;;;;;4990827;28;20035;-39
2022/11/05 11:23:16;;;;;;;8.63;2.72;;;11.20;99.90;;;;;;4990252;28;20037;-39
2022/11/05 11:26:02;;;;;;;5.03;1.73;;;11.20;99.90;;;;;;4988206;28;20043;-39
2022/11/05 11:28:32;;;;;;;6.53;1.63;;;11.20;99.90;;;;;;4981555;28;20053;-40
2022/11/05 11:31:06;;;;;;;5.78;1.75;;;11.10;99.90;;;;;;4995197;28;20041;-39
2022/11/05 11:33:33;;;;;;;3.88;1.80;;;11.10;99.90;;;;;;4979881;28;20108;-39
2022/11/05 11:36:00;;;;;;;4.30;1.52;;;11.00;99.90;;;;;;4992999;28;20038;-40
2022/11/05 11:38:30;;;;;;;5.30;2.30;;;11.00;99.90;;;;;;4988956;28;20507;-40
2022/11/05 11:41:20;;;;;;;7.45;1.92;;;11.10;99.90;;;;;;4988857;28;20104;-39
2022/11/05 11:43:45;;;;;;;5.97;2.15;;;11.10;99.90;;;;;;4971751;28;20054;-40
2022/11/05 11:46:17;;;;;;;3.38;1.92;;;11.00;99.90;;;;;;4985983;28;20042;-41
2022/11/05 11:48:46;;;;;;;8.73;2.75;;;11.00;99.90;;;;;;4986711;28;20042;-40
2022/11/05 11:51:30;;;;;;;5.15;1.88;;;11.00;99.90;;;;;;4985610;28;20542;-39
2022/11/05 11:54:01;;;;;;;4.47;2.05;;;11.10;99.90;;;;;;4984521;28;20582;-40
2022/11/05 11:56:29;;;;;;;4.35;1.83;;;11.10;99.90;;;;;;4984252;28;21006;-39
2022/11/05 11:58:59;;;;;;;5.00;2.10;;;11.10;99.90;;;;;;4983531;28;20574;-40
2022/11/05 12:01:44;;;;;;;4.90;2.20;;;11.20;99.90;;;;;;4980856;28;20042;-39
2022/11/05 12:04:37;;;;;;;3.63;2.20;;;11.20;99.90;;;;;;4963844;28;20053;-40
2022/11/05 12:07:05;;;;;;;7.30;2.25;;;11.30;99.90;;;;;;4990809;28;20097;-39
2022/11/05 12:09:53;;;;;;;4.20;1.90;;;11.30;99.90;;;;;;4973059;28;20141;-39
2022/11/05 12:13:08;;;;;;;8.40;2.30;;;11.40;99.90;;;;;;4990710;28;20045;-39
2022/11/05 12:15:51;;;;;;;4.90;2.03;;;11.40;99.90;;;;;;4966259;28;20496;-40
2022/11/05 12:18:38;;;;;;;6.07;2.47;;;11.50;99.90;;;;;;4987165;28;20065;-40
2022/11/05 12:21:11;;;;;;;6.20;1.80;;;11.60;99.90;;;;;;4989980;28;20601;-41
2022/11/05 12:23:57;;;;;;;;;;;11.70;99.90;;;;;;4988691;28;20042;-41
2022/11/05 12:26:29;;;;;;;6.63;1.70;;;11.70;99.90;;;;;;4988753;28;20409;-42
2022/11/05 12:29:20;;;;;;;5.17;1.80;;;11.80;99.90;;;;;;4990224;28;20053;-41
2022/11/05 12:32:08;;;;;;;6.15;1.77;;;11.80;99.90;;;;;;4972105;28;20360;-44
2022/11/05 12:34:50;;;;;;;7.07;2.08;;;11.80;99.90;;;;;;4990264;28;20046;-44
2022/11/05 12:37:46;;;;;;;5.82;1.67;;;11.90;99.90;;;;;;4986653;28;20038;-39
2022/11/05 12:40:49;;;;;;;4.57;1.90;;;12.00;99.90;;;;;;4988929;28;20105;-41
2022/11/05 12:43:35;;;;;;;6.55;1.77;;;12.00;99.90;;;;;;4981881;28;20042;-41
2022/11/05 12:46:10;;;;;;;7.13;1.75;;;12.10;99.90;;;;;;4979309;28;20416;-40
2022/11/05 12:49:09;;;;;;;7.35;1.90;;;12.10;99.90;;;;;;4985791;28;20138;-45
2022/11/05 12:52:04;;;;;;;5.95;1.73;;;12.10;99.90;;;;;;4985204;28;20042;-41
2022/11/05 12:54:48;;;;;;;8.23;3.30;;;12.10;99.90;;;;;;4987175;28;20043;-43
2022/11/05 12:57:16;;;;;;;5.38;2.50;;;12.00;99.90;;;;;;4985984;28;20046;-42
2022/11/05 13:00:05;;;;;;;3.53;1.67;;;12.00;99.90;;;;;;4982700;28;20084;-41
2022/11/05 13:03:03;;;;;;;3.92;1.73;;;11.90;99.90;;;;;;4986014;28;20136;-41
2022/11/05 13:05:38;;;;;;;4.93;2.17;;;11.90;99.90;;;;;;4986806;28;20514;-40
2022/11/05 13:08:13;;;;;;;4.20;1.67;;;11.90;99.90;;;;;;4983242;28;20057;-41
2022/11/05 13:10:50;;;;;;;5.50;1.70;;;11.90;99.90;;;;;;4969108;28;20117;-40
2022/11/05 13:13:36;;;;;;;4.35;1.85;;;11.90;99.90;;;;;;4989365;28;21824;-42
2022/11/05 13:16:29;;;;;;;8.13;2.08;;;11.90;99.90;;;;;;4986855;28;20519;-42
2022/11/05 13:19:14;;;;;;;4.15;1.83;;;11.90;99.90;;;;;;4988678;28;20046;-41
2022/11/05 13:21:42;;;;;;;6.28;1.90;;;11.90;99.90;;;;;;4989971;28;20054;-42
2022/11/05 13:24:23;;;;;;;5.25;1.85;;;12.00;99.90;;;;;;4987993;28;20522;-39
2022/11/05 13:26:53;;;;;;;6.97;1.90;;;11.90;99.90;;;;;;4991768;28;20042;-41
2022/11/05 13:29:45;;;;;;;5.07;1.70;;;11.80;99.90;;;;;;4985332;28;20492;-41
2022/11/05 13:32:35;;;;;;;4.25;1.90;;;11.80;99.90;;;;;;4978547;28;20034;-41
2022/11/05 13:35:03;;;;;;;10.00;1.63;;;11.70;99.90;;;;;;4980327;28;20397;-41
2022/11/05 13:40:29;;;;;;;5.53;2.00;;;11.60;99.90;;;;;;4989665;28;20057;-42
2022/11/05 13:43:19;;;;;;;4.38;2.40;;;11.60;99.90;;;;;;4985974;28;20042;-43
2022/11/05 13:46:05;;;;;;;5.43;2.03;;;11.60;99.90;;;;;;4985098;28;20779;-43
2022/11/05 13:48:53;;;;;;;4.05;1.90;;;11.60;99.90;;;;;;4982379;28;20117;-44
2022/11/05 13:51:43;;;;;;;5.85;1.90;;;11.50;99.90;;;;;;4997070;28;20049;-41
2022/11/05 13:54:48;;;;;;;7.47;2.78;;;11.50;99.90;;;;;;4988549;28;20038;-43
2022/11/05 13:57:23;;;;;;;5.28;2.30;;;11.50;99.90;;;;;;4989591;28;20495;-41
2022/11/05 14:00:09;;;;;;;6.38;2.28;;;11.50;99.90;;;;;;4988046;28;20046;-42
2022/11/05 14:03:06;;;;;;;4.97;2.00;;;11.40;99.90;;;;;;4970669;28;20504;-41
2022/11/05 14:05:40;;;;;;;17.70;2.30;;;11.40;99.90;;;;;;4973995;28;20069;-42
2022/11/05 14:08:10;;;;;;;3.67;1.50;;;11.40;99.90;;;;;;4991255;28;20046;-41